sensor_id;sensor_type;location;lat;lon;timestamp;P1;durP1;ratioP1;P2;durP2;ratioP2
72404;SDS011;60395;52.020;113.548;2023-03-21T00:01:17;42.53;;;14.23;;
72404;SDS011;60395;52.020;113.548;2023-03-21T00:04:23;45.22;;;13.65;;
72404;SDS011;60395;52.020;113.548;2023-03-21T00:07:41;36.88;;;12.27;;
72404;SDS011;60395;52.020;113.548;2023-03-21T00:10:46;32.22;;;13.35;;
72404;SDS011;60395;52.020;113.548;2023-03-21T00:13:53;41.10;;;13.55;;
72404;SDS011;60395;52.020;113.548;2023-03-21T00:17:06;44.78;;;15.82;;
72404;SDS011;60395;52.020;113.548;2023-03-21T00:20:14;36.40;;;12.32;;
72404;SDS011;60395;52.020;113.548;2023-03-21T00:23:18;40.85;;;12.18;;
72404;SDS011;60395;52.020;113.548;2023-03-21T00:26:23;23.27;;;10.93;;
72404;SDS011;60395;52.020;113.548;2023-03-21T00:29:30;26.15;;;10.55;;
72404;SDS011;60395;52.020;113.548;2023-03-21T00:32:45;29.30;;;11.70;;
72404;SDS011;60395;52.020;113.548;2023-03-21T00:36:24;35.03;;;12.55;;
72404;SDS011;60395;52.020;113.548;2023-03-21T00:39:41;25.92;;;10.88;;
72404;SDS011;60395;52.020;113.548;2023-03-21T00:42:49;33.22;;;11.32;;
72404;SDS011;60395;52.020;113.548;2023-03-21T00:45:59;31.00;;;11.52;;
72404;SDS011;60395;52.020;113.548;2023-03-21T00:49:03;25.63;;;11.90;;
72404;SDS011;60395;52.020;113.548;2023-03-21T00:52:07;32.10;;;11.73;;
72404;SDS011;60395;52.020;113.548;2023-03-21T00:55:29;32.88;;;13.07;;
72404;SDS011;60395;52.020;113.548;2023-03-21T00:58:39;29.75;;;12.75;;
72404;SDS011;60395;52.020;113.548;2023-03-21T01:01:50;41.75;;;14.32;;
72404;SDS011;60395;52.020;113.548;2023-03-21T01:04:55;34.33;;;14.32;;
72404;SDS011;60395;52.020;113.548;2023-03-21T01:08:03;44.20;;;15.40;;
72404;SDS011;60395;52.020;113.548;2023-03-21T01:11:27;36.93;;;15.63;;
72404;SDS011;60395;52.020;113.548;2023-03-21T01:14:31;47.10;;;16.77;;
72404;SDS011;60395;52.020;113.548;2023-03-21T01:17:34;38.47;;;15.93;;
72404;SDS011;60395;52.020;113.548;2023-03-21T01:20:39;34.90;;;14.55;;
72404;SDS011;60395;52.020;113.548;2023-03-21T01:23:46;48.50;;;16.90;;
72404;SDS011;60395;52.020;113.548;2023-03-21T01:26:56;40.83;;;16.38;;
72404;SDS011;60395;52.020;113.548;2023-03-21T01:30:01;43.92;;;15.77;;
72404;SDS011;60395;52.020;113.548;2023-03-21T01:33:18;38.00;;;13.73;;
72404;SDS011;60395;52.020;113.548;2023-03-21T01:36:31;40.28;;;16.38;;
72404;SDS011;60395;52.020;113.548;2023-03-21T01:39:47;43.20;;;14.38;;
72404;SDS011;60395;52.020;113.548;2023-03-21T01:42:54;24.70;;;10.65;;
72404;SDS011;60395;52.020;113.548;2023-03-21T01:46:11;37.85;;;15.85;;
72404;SDS011;60395;52.020;113.548;2023-03-21T01:49:44;35.75;;;13.70;;
72404;SDS011;60395;52.020;113.548;2023-03-21T01:52:55;25.47;;;9.30;;
72404;SDS011;60395;52.020;113.548;2023-03-21T01:56:07;29.33;;;12.68;;
72404;SDS011;60395;52.020;113.548;2023-03-21T01:59:30;37.72;;;14.75;;
72404;SDS011;60395;52.020;113.548;2023-03-21T02:03:07;29.95;;;12.77;;
72404;SDS011;60395;52.020;113.548;2023-03-21T02:11:15;18.63;;;5.63;;
72404;SDS011;60395;52.020;113.548;2023-03-21T02:15:14;10.13;;;2.95;;
72404;SDS011;60395;52.020;113.548;2023-03-21T02:23:43;10.85;;;3.28;;
72404;SDS011;60395;52.020;113.548;2023-03-21T02:27:30;2.88;;;1.83;;
72404;SDS011;60395;52.020;113.548;2023-03-21T02:35:48;10.35;;;3.00;;
72404;SDS011;60395;52.020;113.548;2023-03-21T02:43:08;5.68;;;2.70;;
72404;SDS011;60395;52.020;113.548;2023-03-21T02:46:40;9.32;;;3.38;;
72404;SDS011;60395;52.020;113.548;2023-03-21T02:53:44;5.90;;;1.80;;
72404;SDS011;60395;52.020;113.548;2023-03-21T02:57:13;14.35;;;2.63;;
72404;SDS011;60395;52.020;113.548;2023-03-21T03:00:24;4.35;;;1.95;;
72404;SDS011;60395;52.020;113.548;2023-03-21T03:03:34;7.68;;;2.17;;
72404;SDS011;60395;52.020;113.548;2023-03-21T03:06:45;6.95;;;1.85;;
72404;SDS011;60395;52.020;113.548;2023-03-21T03:21:09;6.82;;;2.70;;
72404;SDS011;60395;52.020;113.548;2023-03-21T03:27:55;5.63;;;2.50;;
72404;SDS011;60395;52.020;113.548;2023-03-21T03:31:11;5.00;;;1.45;;
72404;SDS011;60395;52.020;113.548;2023-03-21T03:34:31;3.10;;;1.77;;
72404;SDS011;60395;52.020;113.548;2023-03-21T03:37:48;4.85;;;1.90;;
72404;SDS011;60395;52.020;113.548;2023-03-21T03:40:57;7.95;;;2.22;;
72404;SDS011;60395;52.020;113.548;2023-03-21T03:44:15;4.32;;;2.10;;
72404;SDS011;60395;52.020;113.548;2023-03-21T03:51:06;6.75;;;1.88;;
72404;SDS011;60395;52.020;113.548;2023-03-21T03:54:44;5.07;;;2.10;;
72404;SDS011;60395;52.020;113.548;2023-03-21T03:58:00;3.55;;;2.20;;
72404;SDS011;60395;52.020;113.548;2023-03-21T04:01:15;3.05;;;1.70;;
72404;SDS011;60395;52.020;113.548;2023-03-21T04:04:19;8.73;;;2.70;;
72404;SDS011;60395;52.020;113.548;2023-03-21T04:07:30;5.50;;;1.95;;
72404;SDS011;60395;52.020;113.548;2023-03-21T04:13:42;4.28;;;1.60;;
72404;SDS011;60395;52.020;113.548;2023-03-21T04:16:55;1.63;;;1.20;;
72404;SDS011;60395;52.020;113.548;2023-03-21T04:19:59;8.95;;;1.80;;
72404;SDS011;60395;52.020;113.548;2023-03-21T04:23:17;4.70;;;1.98;;
72404;SDS011;60395;52.020;113.548;2023-03-21T04:26:25;7.00;;;2.67;;
72404;SDS011;60395;52.020;113.548;2023-03-21T04:30:00;7.23;;;3.20;;
72404;SDS011;60395;52.020;113.548;2023-03-21T04:33:22;5.47;;;2.47;;
72404;SDS011;60395;52.020;113.548;2023-03-21T04:36:30;10.52;;;3.20;;
72404;SDS011;60395;52.020;113.548;2023-03-21T04:39:42;10.93;;;2.85;;
72404;SDS011;60395;52.020;113.548;2023-03-21T04:42:57;10.35;;;2.25;;
72404;SDS011;60395;52.020;113.548;2023-03-21T04:46:02;13.60;;;2.63;;
72404;SDS011;60395;52.020;113.548;2023-03-21T04:49:06;5.57;;;2.88;;
72404;SDS011;60395;52.020;113.548;2023-03-21T04:52:10;3.97;;;1.92;;
72404;SDS011;60395;52.020;113.548;2023-03-21T04:55:13;6.65;;;2.13;;
72404;SDS011;60395;52.020;113.548;2023-03-21T04:58:19;25.35;;;2.75;;
72404;SDS011;60395;52.020;113.548;2023-03-21T05:01:23;7.78;;;1.92;;
72404;SDS011;60395;52.020;113.548;2023-03-21T05:04:27;5.73;;;2.03;;
72404;SDS011;60395;52.020;113.548;2023-03-21T05:07:30;3.60;;;2.08;;
72404;SDS011;60395;52.020;113.548;2023-03-21T05:10:34;9.80;;;2.00;;
72404;SDS011;60395;52.020;113.548;2023-03-21T05:13:37;1.55;;;0.85;;
72404;SDS011;60395;52.020;113.548;2023-03-21T05:16:41;11.68;;;2.50;;
72404;SDS011;60395;52.020;113.548;2023-03-21T05:19:55;9.68;;;2.28;;
72404;SDS011;60395;52.020;113.548;2023-03-21T05:22:59;4.90;;;2.40;;
72404;SDS011;60395;52.020;113.548;2023-03-21T05:26:03;4.47;;;1.90;;
72404;SDS011;60395;52.020;113.548;2023-03-21T05:29:17;1.95;;;1.08;;
72404;SDS011;60395;52.020;113.548;2023-03-21T05:32:28;1.52;;;0.80;;
72404;SDS011;60395;52.020;113.548;2023-03-21T05:35:34;7.25;;;2.00;;
72404;SDS011;60395;52.020;113.548;2023-03-21T05:38:41;1.35;;;1.00;;
72404;SDS011;60395;52.020;113.548;2023-03-21T05:41:48;2.88;;;1.40;;
72404;SDS011;60395;52.020;113.548;2023-03-21T05:44:51;2.65;;;1.48;;
72404;SDS011;60395;52.020;113.548;2023-03-21T05:48:00;5.00;;;1.30;;
72404;SDS011;60395;52.020;113.548;2023-03-21T05:51:09;3.42;;;1.15;;
72404;SDS011;60395;52.020;113.548;2023-03-21T05:54:12;6.78;;;1.60;;
72404;SDS011;60395;52.020;113.548;2023-03-21T05:57:21;6.15;;;1.70;;
72404;SDS011;60395;52.020;113.548;2023-03-21T06:00:37;10.43;;;1.48;;
72404;SDS011;60395;52.020;113.548;2023-03-21T06:03:53;3.55;;;1.30;;
72404;SDS011;60395;52.020;113.548;2023-03-21T06:10:01;4.85;;;1.70;;
72404;SDS011;60395;52.020;113.548;2023-03-21T06:13:05;8.77;;;2.20;;
72404;SDS011;60395;52.020;113.548;2023-03-21T06:16:08;5.47;;;1.60;;
72404;SDS011;60395;52.020;113.548;2023-03-21T06:19:12;5.05;;;1.70;;
72404;SDS011;60395;52.020;113.548;2023-03-21T06:22:30;8.18;;;1.63;;
72404;SDS011;60395;52.020;113.548;2023-03-21T06:25:35;9.57;;;2.10;;
72404;SDS011;60395;52.020;113.548;2023-03-21T06:28:39;13.02;;;1.30;;
72404;SDS011;60395;52.020;113.548;2023-03-21T06:31:43;4.68;;;1.38;;
72404;SDS011;60395;52.020;113.548;2023-03-21T06:34:46;2.85;;;1.50;;
72404;SDS011;60395;52.020;113.548;2023-03-21T06:37:49;5.85;;;1.63;;
72404;SDS011;60395;52.020;113.548;2023-03-21T06:40:54;8.35;;;1.10;;
72404;SDS011;60395;52.020;113.548;2023-03-21T06:44:00;3.47;;;1.85;;
72404;SDS011;60395;52.020;113.548;2023-03-21T06:47:08;2.83;;;1.40;;
72404;SDS011;60395;52.020;113.548;2023-03-21T06:50:13;10.05;;;1.92;;
72404;SDS011;60395;52.020;113.548;2023-03-21T06:56:40;4.25;;;2.10;;
72404;SDS011;60395;52.020;113.548;2023-03-21T06:59:46;4.35;;;1.40;;
72404;SDS011;60395;52.020;113.548;2023-03-21T07:02:53;12.60;;;1.70;;
72404;SDS011;60395;52.020;113.548;2023-03-21T07:06:08;3.63;;;2.17;;
72404;SDS011;60395;52.020;113.548;2023-03-21T07:09:13;3.05;;;1.35;;
72404;SDS011;60395;52.020;113.548;2023-03-21T07:12:19;13.93;;;7.25;;
72404;SDS011;60395;52.020;113.548;2023-03-21T07:15:41;4.03;;;1.90;;
72404;SDS011;60395;52.020;113.548;2023-03-21T07:18:46;3.97;;;2.30;;
72404;SDS011;60395;52.020;113.548;2023-03-21T07:21:49;2.20;;;1.40;;
72404;SDS011;60395;52.020;113.548;2023-03-21T07:24:53;6.00;;;3.20;;
72404;SDS011;60395;52.020;113.548;2023-03-21T07:28:11;4.72;;;2.42;;
72404;SDS011;60395;52.020;113.548;2023-03-21T07:31:15;4.13;;;1.73;;
72404;SDS011;60395;52.020;113.548;2023-03-21T07:34:18;5.82;;;2.28;;
72404;SDS011;60395;52.020;113.548;2023-03-21T07:37:22;3.22;;;2.10;;
72404;SDS011;60395;52.020;113.548;2023-03-21T07:40:26;2.60;;;1.63;;
72404;SDS011;60395;52.020;113.548;2023-03-21T07:43:30;4.35;;;2.00;;
72404;SDS011;60395;52.020;113.548;2023-03-21T07:46:33;2.20;;;1.40;;
72404;SDS011;60395;52.020;113.548;2023-03-21T07:49:37;6.25;;;1.77;;
72404;SDS011;60395;52.020;113.548;2023-03-21T07:52:40;4.00;;;1.95;;
72404;SDS011;60395;52.020;113.548;2023-03-21T07:55:43;3.75;;;2.28;;
72404;SDS011;60395;52.020;113.548;2023-03-21T07:58:47;3.63;;;2.08;;
72404;SDS011;60395;52.020;113.548;2023-03-21T08:01:50;6.78;;;2.85;;
72404;SDS011;60395;52.020;113.548;2023-03-21T08:04:53;3.00;;;1.77;;
72404;SDS011;60395;52.020;113.548;2023-03-21T08:07:57;1.97;;;1.37;;
72404;SDS011;60395;52.020;113.548;2023-03-21T08:11:02;4.05;;;2.25;;
72404;SDS011;60395;52.020;113.548;2023-03-21T08:14:06;3.00;;;1.70;;
72404;SDS011;60395;52.020;113.548;2023-03-21T08:17:09;2.10;;;0.98;;
72404;SDS011;60395;52.020;113.548;2023-03-21T08:20:13;3.38;;;1.85;;
72404;SDS011;60395;52.020;113.548;2023-03-21T08:23:20;2.60;;;1.50;;
72404;SDS011;60395;52.020;113.548;2023-03-21T08:26:28;3.13;;;1.50;;
72404;SDS011;60395;52.020;113.548;2023-03-21T08:29:39;2.28;;;1.30;;
72404;SDS011;60395;52.020;113.548;2023-03-21T08:32:43;2.05;;;1.40;;
72404;SDS011;60395;52.020;113.548;2023-03-21T08:35:50;2.53;;;1.60;;
72404;SDS011;60395;52.020;113.548;2023-03-21T08:38:57;2.58;;;1.60;;
72404;SDS011;60395;52.020;113.548;2023-03-21T08:42:09;5.28;;;1.75;;
72404;SDS011;60395;52.020;113.548;2023-03-21T08:45:14;4.60;;;1.13;;
72404;SDS011;60395;52.020;113.548;2023-03-21T08:48:21;2.80;;;1.63;;
72404;SDS011;60395;52.020;113.548;2023-03-21T08:51:30;5.03;;;1.63;;
72404;SDS011;60395;52.020;113.548;2023-03-21T08:54:36;8.32;;;3.08;;
72404;SDS011;60395;52.020;113.548;2023-03-21T08:57:39;4.07;;;2.00;;
72404;SDS011;60395;52.020;113.548;2023-03-21T09:03:48;3.90;;;1.70;;
72404;SDS011;60395;52.020;113.548;2023-03-21T09:06:52;5.95;;;3.30;;
72404;SDS011;60395;52.020;113.548;2023-03-21T09:09:57;6.63;;;2.88;;
72404;SDS011;60395;52.020;113.548;2023-03-21T09:13:21;2.58;;;1.27;;
72404;SDS011;60395;52.020;113.548;2023-03-21T09:16:25;6.38;;;3.30;;
72404;SDS011;60395;52.020;113.548;2023-03-21T09:19:28;3.63;;;1.65;;
72404;SDS011;60395;52.020;113.548;2023-03-21T09:22:33;7.22;;;3.13;;
72404;SDS011;60395;52.020;113.548;2023-03-21T09:25:36;2.40;;;1.27;;
72404;SDS011;60395;52.020;113.548;2023-03-21T09:28:40;4.87;;;2.53;;
72404;SDS011;60395;52.020;113.548;2023-03-21T09:31:44;3.42;;;1.80;;
72404;SDS011;60395;52.020;113.548;2023-03-21T09:34:48;2.85;;;1.52;;
72404;SDS011;60395;52.020;113.548;2023-03-21T09:37:52;5.78;;;2.83;;
72404;SDS011;60395;52.020;113.548;2023-03-21T09:51:04;1.50;;;0.68;;
72404;SDS011;60395;52.020;113.548;2023-03-21T09:54:13;3.50;;;1.50;;
72404;SDS011;60395;52.020;113.548;2023-03-21T10:00:44;3.25;;;2.10;;
72404;SDS011;60395;52.020;113.548;2023-03-21T10:03:52;4.40;;;1.10;;
72404;SDS011;60395;52.020;113.548;2023-03-21T10:06:58;4.15;;;2.17;;
72404;SDS011;60395;52.020;113.548;2023-03-21T10:10:04;4.00;;;2.08;;
72404;SDS011;60395;52.020;113.548;2023-03-21T10:16:28;2.55;;;1.40;;
72404;SDS011;60395;52.020;113.548;2023-03-21T10:19:34;7.90;;;2.58;;
72404;SDS011;60395;52.020;113.548;2023-03-21T10:22:37;4.80;;;2.60;;
72404;SDS011;60395;52.020;113.548;2023-03-21T10:25:42;2.75;;;1.70;;
72404;SDS011;60395;52.020;113.548;2023-03-21T10:29:01;6.93;;;2.45;;
72404;SDS011;60395;52.020;113.548;2023-03-21T10:32:06;2.40;;;1.38;;
72404;SDS011;60395;52.020;113.548;2023-03-21T10:35:15;3.10;;;0.90;;
72404;SDS011;60395;52.020;113.548;2023-03-21T10:38:20;6.47;;;2.60;;
72404;SDS011;60395;52.020;113.548;2023-03-21T10:41:26;3.92;;;1.63;;
72404;SDS011;60395;52.020;113.548;2023-03-21T10:44:31;4.72;;;1.85;;
72404;SDS011;60395;52.020;113.548;2023-03-21T10:47:36;3.67;;;1.83;;
72404;SDS011;60395;52.020;113.548;2023-03-21T10:50:40;4.63;;;2.17;;
72404;SDS011;60395;52.020;113.548;2023-03-21T10:53:45;6.45;;;2.22;;
72404;SDS011;60395;52.020;113.548;2023-03-21T11:00:40;8.60;;;3.20;;
72404;SDS011;60395;52.020;113.548;2023-03-21T11:03:55;9.10;;;4.28;;
72404;SDS011;60395;52.020;113.548;2023-03-21T11:07:16;10.05;;;3.90;;
72404;SDS011;60395;52.020;113.548;2023-03-21T11:10:29;10.10;;;4.00;;
72404;SDS011;60395;52.020;113.548;2023-03-21T11:13:41;7.82;;;2.55;;
72404;SDS011;60395;52.020;113.548;2023-03-21T11:16:53;3.97;;;1.70;;
72404;SDS011;60395;52.020;113.548;2023-03-21T11:20:10;2.42;;;1.17;;
72404;SDS011;60395;52.020;113.548;2023-03-21T11:23:27;3.75;;;1.67;;
72404;SDS011;60395;52.020;113.548;2023-03-21T11:26:43;6.30;;;1.75;;
72404;SDS011;60395;52.020;113.548;2023-03-21T11:29:56;2.10;;;1.30;;
72404;SDS011;60395;52.020;113.548;2023-03-21T11:33:05;4.50;;;1.45;;
72404;SDS011;60395;52.020;113.548;2023-03-21T11:39:32;4.70;;;1.75;;
72404;SDS011;60395;52.020;113.548;2023-03-21T11:42:54;1.50;;;1.00;;
72404;SDS011;60395;52.020;113.548;2023-03-21T11:49:12;6.53;;;2.00;;
72404;SDS011;60395;52.020;113.548;2023-03-21T11:52:49;2.97;;;1.75;;
72404;SDS011;60395;52.020;113.548;2023-03-21T11:56:14;5.35;;;2.35;;
72404;SDS011;60395;52.020;113.548;2023-03-21T12:16:18;9.88;;;3.15;;
72404;SDS011;60395;52.020;113.548;2023-03-21T12:19:49;7.07;;;2.08;;
72404;SDS011;60395;52.020;113.548;2023-03-21T12:23:15;6.50;;;1.60;;
72404;SDS011;60395;52.020;113.548;2023-03-21T12:44:49;5.28;;;2.42;;
72404;SDS011;60395;52.020;113.548;2023-03-21T12:48:19;18.95;;;2.80;;
72404;SDS011;60395;52.020;113.548;2023-03-21T12:51:33;5.50;;;1.20;;
72404;SDS011;60395;52.020;113.548;2023-03-21T12:55:13;2.42;;;1.35;;
72404;SDS011;60395;52.020;113.548;2023-03-21T12:58:19;5.20;;;1.90;;
72404;SDS011;60395;52.020;113.548;2023-03-21T13:01:29;4.50;;;2.28;;
72404;SDS011;60395;52.020;113.548;2023-03-21T13:07:52;4.05;;;1.40;;
72404;SDS011;60395;52.020;113.548;2023-03-21T13:11:01;2.10;;;0.80;;
72404;SDS011;60395;52.020;113.548;2023-03-21T13:14:35;2.05;;;0.90;;
72404;SDS011;60395;52.020;113.548;2023-03-21T13:18:10;2.85;;;1.38;;
72404;SDS011;60395;52.020;113.548;2023-03-21T13:25:03;1.65;;;0.93;;
72404;SDS011;60395;52.020;113.548;2023-03-21T13:28:27;3.25;;;1.45;;
72404;SDS011;60395;52.020;113.548;2023-03-21T13:31:32;2.38;;;1.20;;
72404;SDS011;60395;52.020;113.548;2023-03-21T13:34:57;2.05;;;1.10;;
72404;SDS011;60395;52.020;113.548;2023-03-21T13:41:17;2.55;;;1.00;;
72404;SDS011;60395;52.020;113.548;2023-03-21T13:44:47;1.63;;;0.75;;
72404;SDS011;60395;52.020;113.548;2023-03-21T13:51:01;0.65;;;0.40;;
72404;SDS011;60395;52.020;113.548;2023-03-21T13:57:19;0.98;;;0.73;;
72404;SDS011;60395;52.020;113.548;2023-03-21T14:00:29;3.03;;;1.30;;
72404;SDS011;60395;52.020;113.548;2023-03-21T14:03:33;1.63;;;0.77;;
72404;SDS011;60395;52.020;113.548;2023-03-21T14:06:41;2.17;;;1.30;;
72404;SDS011;60395;52.020;113.548;2023-03-21T14:09:54;0.85;;;0.73;;
72404;SDS011;60395;52.020;113.548;2023-03-21T14:13:23;3.03;;;1.13;;
72404;SDS011;60395;52.020;113.548;2023-03-21T14:16:30;1.63;;;0.63;;
72404;SDS011;60395;52.020;113.548;2023-03-21T14:19:34;0.75;;;0.40;;
72404;SDS011;60395;52.020;113.548;2023-03-21T14:22:38;1.80;;;1.00;;
72404;SDS011;60395;52.020;113.548;2023-03-21T14:25:42;1.52;;;0.85;;
72404;SDS011;60395;52.020;113.548;2023-03-21T14:28:48;1.65;;;0.95;;
72404;SDS011;60395;52.020;113.548;2023-03-21T14:31:54;7.18;;;1.23;;
72404;SDS011;60395;52.020;113.548;2023-03-21T14:38:03;2.07;;;1.10;;
72404;SDS011;60395;52.020;113.548;2023-03-21T14:41:20;1.63;;;0.95;;
72404;SDS011;60395;52.020;113.548;2023-03-21T14:44:31;10.50;;;2.03;;
72404;SDS011;60395;52.020;113.548;2023-03-21T14:51:09;3.95;;;1.73;;
72404;SDS011;60395;52.020;113.548;2023-03-21T14:54:14;14.90;;;4.50;;
72404;SDS011;60395;52.020;113.548;2023-03-21T14:57:21;4.00;;;1.15;;
72404;SDS011;60395;52.020;113.548;2023-03-21T15:00:30;2.08;;;1.13;;
72404;SDS011;60395;52.020;113.548;2023-03-21T15:03:35;1.15;;;0.63;;
72404;SDS011;60395;52.020;113.548;2023-03-21T15:07:21;1.52;;;1.02;;
72404;SDS011;60395;52.020;113.548;2023-03-21T15:10:26;1.27;;;0.88;;
72404;SDS011;60395;52.020;113.548;2023-03-21T15:13:33;2.08;;;1.02;;
72404;SDS011;60395;52.020;113.548;2023-03-21T15:16:43;1.60;;;0.68;;
72404;SDS011;60395;52.020;113.548;2023-03-21T15:19:46;5.68;;;2.30;;
72404;SDS011;60395;52.020;113.548;2023-03-21T15:22:54;3.40;;;1.08;;
72404;SDS011;60395;52.020;113.548;2023-03-21T15:26:00;2.60;;;0.95;;
72404;SDS011;60395;52.020;113.548;2023-03-21T15:29:05;4.30;;;1.65;;
72404;SDS011;60395;52.020;113.548;2023-03-21T15:32:14;2.22;;;1.40;;
72404;SDS011;60395;52.020;113.548;2023-03-21T15:35:41;1.90;;;0.98;;
72404;SDS011;60395;52.020;113.548;2023-03-21T15:38:44;3.20;;;1.85;;
72404;SDS011;60395;52.020;113.548;2023-03-21T15:41:57;4.65;;;0.80;;
72404;SDS011;60395;52.020;113.548;2023-03-21T15:45:12;7.43;;;3.05;;
72404;SDS011;60395;52.020;113.548;2023-03-21T15:48:26;9.07;;;3.40;;
72404;SDS011;60395;52.020;113.548;2023-03-21T15:51:35;6.55;;;1.75;;
72404;SDS011;60395;52.020;113.548;2023-03-21T15:54:43;5.18;;;1.33;;
72404;SDS011;60395;52.020;113.548;2023-03-21T15:57:59;3.25;;;1.80;;
72404;SDS011;60395;52.020;113.548;2023-03-21T16:01:19;2.97;;;1.02;;
72404;SDS011;60395;52.020;113.548;2023-03-21T16:04:24;4.78;;;1.50;;
72404;SDS011;60395;52.020;113.548;2023-03-21T16:07:28;3.00;;;1.60;;
72404;SDS011;60395;52.020;113.548;2023-03-21T16:10:36;4.18;;;1.67;;
72404;SDS011;60395;52.020;113.548;2023-03-21T16:13:40;3.17;;;1.45;;
72404;SDS011;60395;52.020;113.548;2023-03-21T16:16:43;7.80;;;1.50;;
72404;SDS011;60395;52.020;113.548;2023-03-21T16:19:47;2.33;;;0.93;;
72404;SDS011;60395;52.020;113.548;2023-03-21T16:22:51;3.80;;;1.90;;
72404;SDS011;60395;52.020;113.548;2023-03-21T16:25:54;4.57;;;1.83;;
72404;SDS011;60395;52.020;113.548;2023-03-21T16:29:00;5.85;;;1.63;;
72404;SDS011;60395;52.020;113.548;2023-03-21T16:32:05;2.78;;;1.35;;
72404;SDS011;60395;52.020;113.548;2023-03-21T16:35:17;8.27;;;2.17;;
72404;SDS011;60395;52.020;113.548;2023-03-21T16:38:24;9.00;;;1.38;;
72404;SDS011;60395;52.020;113.548;2023-03-21T16:41:27;1.90;;;1.08;;
72404;SDS011;60395;52.020;113.548;2023-03-21T16:44:30;3.38;;;1.40;;
72404;SDS011;60395;52.020;113.548;2023-03-21T16:50:39;2.63;;;1.27;;
72404;SDS011;60395;52.020;113.548;2023-03-21T16:53:43;2.58;;;1.25;;
72404;SDS011;60395;52.020;113.548;2023-03-21T16:56:48;5.35;;;1.02;;
72404;SDS011;60395;52.020;113.548;2023-03-21T16:59:53;4.10;;;1.30;;
72404;SDS011;60395;52.020;113.548;2023-03-21T17:03:01;1.90;;;1.63;;
72404;SDS011;60395;52.020;113.548;2023-03-21T17:06:11;1.23;;;0.80;;
72404;SDS011;60395;52.020;113.548;2023-03-21T17:09:20;1.65;;;0.98;;
72404;SDS011;60395;52.020;113.548;2023-03-21T17:12:25;2.40;;;1.33;;
72404;SDS011;60395;52.020;113.548;2023-03-21T17:15:28;3.35;;;1.08;;
72404;SDS011;60395;52.020;113.548;2023-03-21T17:18:31;2.28;;;1.40;;
72404;SDS011;60395;52.020;113.548;2023-03-21T17:21:35;1.40;;;0.80;;
72404;SDS011;60395;52.020;113.548;2023-03-21T17:24:38;3.88;;;1.40;;
72404;SDS011;60395;52.020;113.548;2023-03-21T17:27:41;1.92;;;1.05;;
72404;SDS011;60395;52.020;113.548;2023-03-21T17:30:45;4.13;;;1.10;;
72404;SDS011;60395;52.020;113.548;2023-03-21T17:33:48;7.07;;;1.35;;
72404;SDS011;60395;52.020;113.548;2023-03-21T17:36:52;2.88;;;1.38;;
72404;SDS011;60395;52.020;113.548;2023-03-21T17:39:55;5.60;;;1.02;;
72404;SDS011;60395;52.020;113.548;2023-03-21T17:42:59;1.05;;;0.70;;
72404;SDS011;60395;52.020;113.548;2023-03-21T17:46:02;2.10;;;0.90;;
72404;SDS011;60395;52.020;113.548;2023-03-21T17:49:09;3.35;;;0.82;;
72404;SDS011;60395;52.020;113.548;2023-03-21T17:52:14;1.45;;;0.80;;
72404;SDS011;60395;52.020;113.548;2023-03-21T17:55:19;1.60;;;0.80;;
72404;SDS011;60395;52.020;113.548;2023-03-21T17:58:22;2.88;;;0.63;;
72404;SDS011;60395;52.020;113.548;2023-03-21T18:01:25;1.27;;;0.57;;
72404;SDS011;60395;52.020;113.548;2023-03-21T18:04:29;3.70;;;1.67;;
72404;SDS011;60395;52.020;113.548;2023-03-21T18:07:34;3.25;;;1.20;;
72404;SDS011;60395;52.020;113.548;2023-03-21T18:10:58;2.75;;;1.02;;
72404;SDS011;60395;52.020;113.548;2023-03-21T18:14:01;1.52;;;0.60;;
72404;SDS011;60395;52.020;113.548;2023-03-21T18:17:18;0.38;;;0.30;;
72404;SDS011;60395;52.020;113.548;2023-03-21T18:20:23;0.75;;;0.38;;
72404;SDS011;60395;52.020;113.548;2023-03-21T18:23:48;1.42;;;0.80;;
72404;SDS011;60395;52.020;113.548;2023-03-21T18:26:52;0.70;;;0.40;;
72404;SDS011;60395;52.020;113.548;2023-03-21T18:29:55;1.70;;;1.00;;
72404;SDS011;60395;52.020;113.548;2023-03-21T18:33:19;2.72;;;0.80;;
72404;SDS011;60395;52.020;113.548;2023-03-21T18:36:23;1.23;;;0.80;;
72404;SDS011;60395;52.020;113.548;2023-03-21T18:39:30;5.22;;;0.88;;
72404;SDS011;60395;52.020;113.548;2023-03-21T18:42:34;0.45;;;0.30;;
72404;SDS011;60395;52.020;113.548;2023-03-21T18:45:37;2.25;;;1.17;;
72404;SDS011;60395;52.020;113.548;2023-03-21T18:48:41;1.13;;;0.70;;
72404;SDS011;60395;52.020;113.548;2023-03-21T18:51:44;1.20;;;0.70;;
72404;SDS011;60395;52.020;113.548;2023-03-21T18:54:48;0.60;;;0.50;;
72404;SDS011;60395;52.020;113.548;2023-03-21T18:57:52;3.30;;;1.00;;
72404;SDS011;60395;52.020;113.548;2023-03-21T19:00:56;1.17;;;0.65;;
72404;SDS011;60395;52.020;113.548;2023-03-21T19:03:59;2.87;;;0.90;;
72404;SDS011;60395;52.020;113.548;2023-03-21T19:07:23;1.92;;;1.17;;
72404;SDS011;60395;52.020;113.548;2023-03-21T19:10:26;0.80;;;0.50;;
72404;SDS011;60395;52.020;113.548;2023-03-21T19:13:29;0.98;;;0.43;;
72404;SDS011;60395;52.020;113.548;2023-03-21T19:16:33;1.98;;;1.17;;
72404;SDS011;60395;52.020;113.548;2023-03-21T19:19:56;1.85;;;0.93;;
72404;SDS011;60395;52.020;113.548;2023-03-21T19:22:59;1.50;;;0.53;;
72404;SDS011;60395;52.020;113.548;2023-03-21T19:26:03;2.25;;;1.13;;
72404;SDS011;60395;52.020;113.548;2023-03-21T19:29:06;0.97;;;0.57;;
72404;SDS011;60395;52.020;113.548;2023-03-21T19:32:10;1.13;;;0.55;;
72404;SDS011;60395;52.020;113.548;2023-03-21T19:35:14;2.25;;;1.40;;
72404;SDS011;60395;52.020;113.548;2023-03-21T19:38:18;1.92;;;1.00;;
72404;SDS011;60395;52.020;113.548;2023-03-21T19:41:21;4.57;;;0.60;;
72404;SDS011;60395;52.020;113.548;2023-03-21T19:44:24;0.98;;;0.68;;
72404;SDS011;60395;52.020;113.548;2023-03-21T19:47:27;3.08;;;1.30;;
72404;SDS011;60395;52.020;113.548;2023-03-21T19:50:31;2.13;;;1.20;;
72404;SDS011;60395;52.020;113.548;2023-03-21T19:53:54;8.20;;;1.90;;
72404;SDS011;60395;52.020;113.548;2023-03-21T19:56:57;4.25;;;2.30;;
72404;SDS011;60395;52.020;113.548;2023-03-21T20:00:00;4.10;;;1.50;;
72404;SDS011;60395;52.020;113.548;2023-03-21T20:03:05;4.97;;;1.98;;
72404;SDS011;60395;52.020;113.548;2023-03-21T20:06:10;1.20;;;0.80;;
72404;SDS011;60395;52.020;113.548;2023-03-21T20:09:14;1.75;;;1.17;;
72404;SDS011;60395;52.020;113.548;2023-03-21T20:12:38;1.95;;;0.77;;
72404;SDS011;60395;52.020;113.548;2023-03-21T20:15:41;2.45;;;1.17;;
72404;SDS011;60395;52.020;113.548;2023-03-21T20:18:48;1.70;;;1.08;;
72404;SDS011;60395;52.020;113.548;2023-03-21T20:21:53;2.72;;;1.35;;
72404;SDS011;60395;52.020;113.548;2023-03-21T20:25:02;3.53;;;2.10;;
72404;SDS011;60395;52.020;113.548;2023-03-21T20:28:10;1.90;;;1.05;;
72404;SDS011;60395;52.020;113.548;2023-03-21T20:31:25;1.13;;;0.65;;
72404;SDS011;60395;52.020;113.548;2023-03-21T20:34:29;1.00;;;0.52;;
72404;SDS011;60395;52.020;113.548;2023-03-21T20:37:33;0.88;;;0.50;;
72404;SDS011;60395;52.020;113.548;2023-03-21T20:40:37;3.75;;;1.58;;
72404;SDS011;60395;52.020;113.548;2023-03-21T20:43:44;1.48;;;0.80;;
72404;SDS011;60395;52.020;113.548;2023-03-21T20:47:08;1.23;;;0.60;;